sensor_id;sensor_type;location;lat;lon;timestamp;P1;durP1;ratioP1;P2;durP2;ratioP2
39032;SDS011;24794;51.982;5.878;2022-09-09T00:00:16;3.47;;;1.90;;
39032;SDS011;24794;51.982;5.878;2022-09-09T00:01:41;5.05;;;1.65;;
39032;SDS011;24794;51.982;5.878;2022-09-09T00:04:09;2.03;;;1.40;;
39032;SDS011;24794;51.982;5.878;2022-09-09T00:05:38;2.38;;;1.33;;
39032;SDS011;24794;51.982;5.878;2022-09-09T00:08:20;3.58;;;1.60;;
39032;SDS011;24794;51.982;5.878;2022-09-09T00:09:25;2.65;;;1.60;;
39032;SDS011;24794;51.982;5.878;2022-09-09T00:10:29;5.00;;;2.00;;
39032;SDS011;24794;51.982;5.878;2022-09-09T00:13:07;2.80;;;1.58;;
39032;SDS011;24794;51.982;5.878;2022-09-09T00:14:32;1.50;;;1.40;;
39032;SDS011;24794;51.982;5.878;2022-09-09T00:17:08;3.63;;;1.80;;
39032;SDS011;24794;51.982;5.878;2022-09-09T00:21:05;2.95;;;1.70;;
39032;SDS011;24794;51.982;5.878;2022-09-09T00:22:29;1.80;;;1.63;;
39032;SDS011;24794;51.982;5.878;2022-09-09T00:23:42;2.30;;;1.67;;
39032;SDS011;24794;51.982;5.878;2022-09-09T00:24:54;3.60;;;1.70;;
39032;SDS011;24794;51.982;5.878;2022-09-09T00:27:25;3.38;;;1.90;;
39032;SDS011;24794;51.982;5.878;2022-09-09T00:28:41;2.60;;;1.70;;
39032;SDS011;24794;51.982;5.878;2022-09-09T00:30:00;2.75;;;1.63;;
39032;SDS011;24794;51.982;5.878;2022-09-09T00:31:16;3.75;;;1.60;;
39032;SDS011;24794;51.982;5.878;2022-09-09T00:32:22;2.90;;;1.52;;
39032;SDS011;24794;51.982;5.878;2022-09-09T00:33:26;5.25;;;1.98;;
39032;SDS011;24794;51.982;5.878;2022-09-09T00:34:27;3.63;;;2.00;;
39032;SDS011;24794;51.982;5.878;2022-09-09T00:35:36;2.90;;;1.50;;
39032;SDS011;24794;51.982;5.878;2022-09-09T00:36:40;4.15;;;1.50;;
39032;SDS011;24794;51.982;5.878;2022-09-09T00:37:44;3.30;;;1.60;;
39032;SDS011;24794;51.982;5.878;2022-09-09T00:38:59;2.53;;;1.58;;
39032;SDS011;24794;51.982;5.878;2022-09-09T00:40:02;4.13;;;1.83;;
39032;SDS011;24794;51.982;5.878;2022-09-09T00:41:31;3.13;;;1.70;;
39032;SDS011;24794;51.982;5.878;2022-09-09T00:43:35;2.63;;;1.40;;
39032;SDS011;24794;51.982;5.878;2022-09-09T00:44:38;1.52;;;1.42;;
39032;SDS011;24794;51.982;5.878;2022-09-09T00:47:15;2.17;;;1.50;;
39032;SDS011;24794;51.982;5.878;2022-09-09T00:53:58;1.90;;;1.38;;
39032;SDS011;24794;51.982;5.878;2022-09-09T00:55:53;2.10;;;1.15;;
39032;SDS011;24794;51.982;5.878;2022-09-09T00:56:53;2.10;;;1.13;;
39032;SDS011;24794;51.982;5.878;2022-09-09T00:58:12;2.38;;;1.20;;
39032;SDS011;24794;51.982;5.878;2022-09-09T00:59:32;2.45;;;1.40;;
39032;SDS011;24794;51.982;5.878;2022-09-09T01:00:50;2.53;;;1.20;;
39032;SDS011;24794;51.982;5.878;2022-09-09T01:01:56;2.55;;;1.45;;
39032;SDS011;24794;51.982;5.878;2022-09-09T01:04:25;2.55;;;1.48;;
39032;SDS011;24794;51.982;5.878;2022-09-09T01:06:34;1.25;;;0.90;;
39032;SDS011;24794;51.982;5.878;2022-09-09T01:07:38;2.28;;;1.08;;
39032;SDS011;24794;51.982;5.878;2022-09-09T01:09:52;2.95;;;1.20;;
39032;SDS011;24794;51.982;5.878;2022-09-09T01:10:56;1.27;;;1.17;;
39032;SDS011;24794;51.982;5.878;2022-09-09T01:13:04;1.65;;;1.00;;
39032;SDS011;24794;51.982;5.878;2022-09-09T01:15:36;2.13;;;0.82;;
39032;SDS011;24794;51.982;5.878;2022-09-09T01:16:41;2.33;;;1.10;;
39032;SDS011;24794;51.982;5.878;2022-09-09T01:18:46;2.40;;;0.90;;
39032;SDS011;24794;51.982;5.878;2022-09-09T01:24:27;3.70;;;1.10;;
39032;SDS011;24794;51.982;5.878;2022-09-09T01:27:05;2.55;;;0.77;;
39032;SDS011;24794;51.982;5.878;2022-09-09T01:28:08;2.85;;;1.10;;
39032;SDS011;24794;51.982;5.878;2022-09-09T01:29:14;2.35;;;0.90;;
39032;SDS011;24794;51.982;5.878;2022-09-09T01:30:16;2.22;;;1.13;;
39032;SDS011;24794;51.982;5.878;2022-09-09T01:33:01;2.28;;;1.02;;
39032;SDS011;24794;51.982;5.878;2022-09-09T01:34:04;1.88;;;0.90;;
39032;SDS011;24794;51.982;5.878;2022-09-09T01:36:38;2.47;;;1.00;;
39032;SDS011;24794;51.982;5.878;2022-09-09T01:37:59;2.05;;;1.00;;
39032;SDS011;24794;51.982;5.878;2022-09-09T01:39:00;2.10;;;0.90;;
39032;SDS011;24794;51.982;5.878;2022-09-09T01:40:01;1.77;;;1.08;;
39032;SDS011;24794;51.982;5.878;2022-09-09T01:41:02;1.85;;;0.90;;
39032;SDS011;24794;51.982;5.878;2022-09-09T01:42:04;0.90;;;0.77;;
39032;SDS011;24794;51.982;5.878;2022-09-09T01:43:06;0.80;;;0.70;;
39032;SDS011;24794;51.982;5.878;2022-09-09T01:44:07;1.42;;;0.70;;
39032;SDS011;24794;51.982;5.878;2022-09-09T01:45:08;2.22;;;0.90;;
39032;SDS011;24794;51.982;5.878;2022-09-09T01:46:09;3.15;;;1.00;;
39032;SDS011;24794;51.982;5.878;2022-09-09T01:47:12;0.98;;;0.68;;
39032;SDS011;24794;51.982;5.878;2022-09-09T01:48:14;1.55;;;0.90;;
39032;SDS011;24794;51.982;5.878;2022-09-09T01:49:16;0.95;;;0.80;;
39032;SDS011;24794;51.982;5.878;2022-09-09T01:50:18;0.90;;;0.60;;
39032;SDS011;24794;51.982;5.878;2022-09-09T01:51:20;3.40;;;0.80;;
39032;SDS011;24794;51.982;5.878;2022-09-09T01:53:30;1.80;;;0.90;;
39032;SDS011;24794;51.982;5.878;2022-09-09T01:54:31;1.02;;;0.60;;
39032;SDS011;24794;51.982;5.878;2022-09-09T01:55:36;0.63;;;0.60;;
39032;SDS011;24794;51.982;5.878;2022-09-09T01:58:33;1.42;;;0.80;;
39032;SDS011;24794;51.982;5.878;2022-09-09T01:59:17;1.63;;;0.80;;
39032;SDS011;24794;51.982;5.878;2022-09-09T02:00:22;1.42;;;0.80;;
39032;SDS011;24794;51.982;5.878;2022-09-09T02:03:47;1.55;;;0.80;;
39032;SDS011;24794;51.982;5.878;2022-09-09T02:09:36;1.92;;;0.70;;
39032;SDS011;24794;51.982;5.878;2022-09-09T02:10:42;2.58;;;0.93;;
39032;SDS011;24794;51.982;5.878;2022-09-09T02:11:52;2.45;;;0.80;;
39032;SDS011;24794;51.982;5.878;2022-09-09T02:13:18;1.10;;;0.80;;
39032;SDS011;24794;51.982;5.878;2022-09-09T02:14:28;2.30;;;0.60;;
39032;SDS011;24794;51.982;5.878;2022-09-09T02:15:37;1.42;;;0.80;;
39032;SDS011;24794;51.982;5.878;2022-09-09T02:16:42;2.08;;;1.10;;
39032;SDS011;24794;51.982;5.878;2022-09-09T02:17:52;1.83;;;0.68;;
39032;SDS011;24794;51.982;5.878;2022-09-09T02:19:07;1.63;;;1.00;;
39032;SDS011;24794;51.982;5.878;2022-09-09T02:20:13;2.13;;;0.80;;
39032;SDS011;24794;51.982;5.878;2022-09-09T02:21:15;1.42;;;0.90;;
39032;SDS011;24794;51.982;5.878;2022-09-09T02:22:17;2.58;;;0.90;;
39032;SDS011;24794;51.982;5.878;2022-09-09T02:23:21;2.60;;;0.85;;
39032;SDS011;24794;51.982;5.878;2022-09-09T02:24:22;2.20;;;0.90;;
39032;SDS011;24794;51.982;5.878;2022-09-09T02:25:23;1.75;;;0.90;;
39032;SDS011;24794;51.982;5.878;2022-09-09T02:26:28;2.35;;;0.75;;
39032;SDS011;24794;51.982;5.878;2022-09-09T02:27:28;2.13;;;0.82;;
39032;SDS011;24794;51.982;5.878;2022-09-09T02:28:29;1.40;;;0.90;;
39032;SDS011;24794;51.982;5.878;2022-09-09T02:29:33;1.05;;;0.85;;
39032;SDS011;24794;51.982;5.878;2022-09-09T02:30:37;2.17;;;0.90;;
39032;SDS011;24794;51.982;5.878;2022-09-09T02:31:39;1.00;;;0.90;;
39032;SDS011;24794;51.982;5.878;2022-09-09T02:32:43;2.95;;;1.05;;
39032;SDS011;24794;51.982;5.878;2022-09-09T02:33:47;1.85;;;0.93;;
39032;SDS011;24794;51.982;5.878;2022-09-09T02:34:58;2.45;;;1.20;;
39032;SDS011;24794;51.982;5.878;2022-09-09T02:36:03;2.33;;;0.90;;
39032;SDS011;24794;51.982;5.878;2022-09-09T02:37:08;2.92;;;0.98;;
39032;SDS011;24794;51.982;5.878;2022-09-09T02:38:11;1.50;;;0.70;;
39032;SDS011;24794;51.982;5.878;2022-09-09T02:39:15;1.45;;;0.90;;
39032;SDS011;24794;51.982;5.878;2022-09-09T02:40:15;2.85;;;1.05;;
39032;SDS011;24794;51.982;5.878;2022-09-09T02:41:20;1.17;;;0.98;;
39032;SDS011;24794;51.982;5.878;2022-09-09T02:42:37;2.20;;;1.00;;
39032;SDS011;24794;51.982;5.878;2022-09-09T02:44:43;4.60;;;1.10;;
39032;SDS011;24794;51.982;5.878;2022-09-09T02:45:51;2.47;;;1.00;;
39032;SDS011;24794;51.982;5.878;2022-09-09T02:48:36;2.42;;;1.10;;
39032;SDS011;24794;51.982;5.878;2022-09-09T02:51:18;1.55;;;1.00;;
39032;SDS011;24794;51.982;5.878;2022-09-09T02:52:38;1.88;;;1.00;;
39032;SDS011;24794;51.982;5.878;2022-09-09T02:54:37;1.30;;;1.15;;
39032;SDS011;24794;51.982;5.878;2022-09-09T02:55:47;1.60;;;1.00;;
39032;SDS011;24794;51.982;5.878;2022-09-09T02:56:53;3.70;;;1.33;;
39032;SDS011;24794;51.982;5.878;2022-09-09T02:57:56;1.90;;;1.08;;
39032;SDS011;24794;51.982;5.878;2022-09-09T02:58:58;1.77;;;1.20;;
39032;SDS011;24794;51.982;5.878;2022-09-09T02:59:59;1.30;;;1.20;;
39032;SDS011;24794;51.982;5.878;2022-09-09T03:01:01;1.88;;;1.40;;
39032;SDS011;24794;51.982;5.878;2022-09-09T03:02:03;1.42;;;1.20;;
39032;SDS011;24794;51.982;5.878;2022-09-09T03:03:04;1.48;;;1.10;;
39032;SDS011;24794;51.982;5.878;2022-09-09T03:04:05;3.15;;;1.40;;
39032;SDS011;24794;51.982;5.878;2022-09-09T03:05:06;1.30;;;1.10;;
39032;SDS011;24794;51.982;5.878;2022-09-09T03:06:06;1.23;;;1.00;;
39032;SDS011;24794;51.982;5.878;2022-09-09T03:07:07;1.60;;;1.20;;
39032;SDS011;24794;51.982;5.878;2022-09-09T03:08:08;1.73;;;1.00;;
39032;SDS011;24794;51.982;5.878;2022-09-09T03:09:09;1.10;;;1.00;;
39032;SDS011;24794;51.982;5.878;2022-09-09T03:10:10;1.63;;;0.90;;
39032;SDS011;24794;51.982;5.878;2022-09-09T03:11:11;2.05;;;1.27;;
39032;SDS011;24794;51.982;5.878;2022-09-09T03:12:11;2.05;;;1.33;;
39032;SDS011;24794;51.982;5.878;2022-09-09T03:13:13;1.55;;;1.13;;
39032;SDS011;24794;51.982;5.878;2022-09-09T03:14:15;2.58;;;1.10;;
39032;SDS011;24794;51.982;5.878;2022-09-09T03:15:16;2.60;;;1.27;;
39032;SDS011;24794;51.982;5.878;2022-09-09T03:16:17;2.33;;;1.10;;
39032;SDS011;24794;51.982;5.878;2022-09-09T03:17:18;2.45;;;1.17;;
39032;SDS011;24794;51.982;5.878;2022-09-09T03:18:18;1.95;;;1.30;;
39032;SDS011;24794;51.982;5.878;2022-09-09T03:19:19;1.48;;;1.13;;
39032;SDS011;24794;51.982;5.878;2022-09-09T03:20:20;2.72;;;2.00;;
39032;SDS011;24794;51.982;5.878;2022-09-09T03:21:21;2.70;;;1.52;;
39032;SDS011;24794;51.982;5.878;2022-09-09T03:22:21;2.85;;;1.77;;
39032;SDS011;24794;51.982;5.878;2022-09-09T03:23:22;3.15;;;1.67;;
39032;SDS011;24794;51.982;5.878;2022-09-09T03:24:23;2.20;;;1.27;;
39032;SDS011;24794;51.982;5.878;2022-09-09T03:25:24;1.42;;;1.23;;
39032;SDS011;24794;51.982;5.878;2022-09-09T03:26:25;2.05;;;1.17;;
39032;SDS011;24794;51.982;5.878;2022-09-09T03:27:26;1.60;;;1.10;;
39032;SDS011;24794;51.982;5.878;2022-09-09T03:28:26;2.72;;;1.20;;
39032;SDS011;24794;51.982;5.878;2022-09-09T03:29:31;3.70;;;1.35;;
39032;SDS011;24794;51.982;5.878;2022-09-09T03:30:31;2.38;;;1.33;;
39032;SDS011;24794;51.982;5.878;2022-09-09T03:31:34;1.10;;;1.00;;
39032;SDS011;24794;51.982;5.878;2022-09-09T03:32:36;1.80;;;1.02;;
39032;SDS011;24794;51.982;5.878;2022-09-09T03:33:37;1.95;;;1.30;;
39032;SDS011;24794;51.982;5.878;2022-09-09T03:34:38;2.20;;;1.20;;
39032;SDS011;24794;51.982;5.878;2022-09-09T03:35:44;4.32;;;1.42;;
39032;SDS011;24794;51.982;5.878;2022-09-09T03:36:47;2.75;;;1.25;;
39032;SDS011;24794;51.982;5.878;2022-09-09T03:37:49;6.05;;;1.50;;
39032;SDS011;24794;51.982;5.878;2022-09-09T03:38:49;1.77;;;1.13;;
39032;SDS011;24794;51.982;5.878;2022-09-09T03:39:50;2.22;;;1.15;;
39032;SDS011;24794;51.982;5.878;2022-09-09T03:40:54;3.90;;;1.20;;
39032;SDS011;24794;51.982;5.878;2022-09-09T03:41:57;3.33;;;1.20;;
39032;SDS011;24794;51.982;5.878;2022-09-09T03:42:58;2.25;;;1.30;;
39032;SDS011;24794;51.982;5.878;2022-09-09T03:43:59;1.45;;;1.08;;
39032;SDS011;24794;51.982;5.878;2022-09-09T03:45:00;2.78;;;1.42;;
39032;SDS011;24794;51.982;5.878;2022-09-09T03:46:00;2.40;;;1.50;;
39032;SDS011;24794;51.982;5.878;2022-09-09T03:47:01;2.30;;;1.20;;
39032;SDS011;24794;51.982;5.878;2022-09-09T03:48:01;1.80;;;1.20;;
39032;SDS011;24794;51.982;5.878;2022-09-09T03:49:02;2.55;;;1.35;;
39032;SDS011;24794;51.982;5.878;2022-09-09T03:50:04;2.72;;;1.40;;
39032;SDS011;24794;51.982;5.878;2022-09-09T03:51:08;2.45;;;1.30;;
39032;SDS011;24794;51.982;5.878;2022-09-09T03:52:09;1.65;;;1.15;;
39032;SDS011;24794;51.982;5.878;2022-09-09T03:53:09;3.58;;;1.42;;
39032;SDS011;24794;51.982;5.878;2022-09-09T03:54:10;1.95;;;1.45;;
39032;SDS011;24794;51.982;5.878;2022-09-09T03:55:10;2.45;;;1.40;;
39032;SDS011;24794;51.982;5.878;2022-09-09T03:56:11;2.28;;;1.25;;
39032;SDS011;24794;51.982;5.878;2022-09-09T03:57:12;3.47;;;1.33;;
39032;SDS011;24794;51.982;5.878;2022-09-09T03:58:15;4.60;;;1.40;;
39032;SDS011;24794;51.982;5.878;2022-09-09T03:59:18;2.28;;;1.30;;
39032;SDS011;24794;51.982;5.878;2022-09-09T04:00:20;1.75;;;1.15;;
39032;SDS011;24794;51.982;5.878;2022-09-09T04:01:21;4.18;;;1.23;;
39032;SDS011;24794;51.982;5.878;2022-09-09T04:02:21;2.97;;;1.30;;
39032;SDS011;24794;51.982;5.878;2022-09-09T04:03:22;2.67;;;1.40;;
39032;SDS011;24794;51.982;5.878;2022-09-09T04:04:24;2.72;;;1.05;;
39032;SDS011;24794;51.982;5.878;2022-09-09T04:05:26;1.65;;;1.20;;
39032;SDS011;24794;51.982;5.878;2022-09-09T04:06:27;3.42;;;1.20;;
39032;SDS011;24794;51.982;5.878;2022-09-09T04:07:27;4.15;;;1.45;;
39032;SDS011;24794;51.982;5.878;2022-09-09T04:08:28;1.70;;;1.17;;
39032;SDS011;24794;51.982;5.878;2022-09-09T04:09:32;1.50;;;1.10;;
39032;SDS011;24794;51.982;5.878;2022-09-09T04:10:34;7.70;;;1.20;;
39032;SDS011;24794;51.982;5.878;2022-09-09T04:11:38;1.60;;;1.42;;
39032;SDS011;24794;51.982;5.878;2022-09-09T04:12:39;2.35;;;1.50;;
39032;SDS011;24794;51.982;5.878;2022-09-09T04:13:39;3.67;;;1.45;;
39032;SDS011;24794;51.982;5.878;2022-09-09T04:14:40;3.28;;;1.25;;
39032;SDS011;24794;51.982;5.878;2022-09-09T04:15:40;3.75;;;1.40;;
39032;SDS011;24794;51.982;5.878;2022-09-09T04:16:42;2.88;;;1.58;;
39032;SDS011;24794;51.982;5.878;2022-09-09T04:17:44;3.45;;;1.55;;
39032;SDS011;24794;51.982;5.878;2022-09-09T04:18:44;3.67;;;1.52;;
39032;SDS011;24794;51.982;5.878;2022-09-09T04:19:45;3.50;;;1.45;;
39032;SDS011;24794;51.982;5.878;2022-09-09T04:20:50;2.45;;;1.42;;
39032;SDS011;24794;51.982;5.878;2022-09-09T04:21:51;1.65;;;1.25;;
39032;SDS011;24794;51.982;5.878;2022-09-09T04:22:51;3.53;;;1.50;;
39032;SDS011;24794;51.982;5.878;2022-09-09T04:23:52;1.45;;;1.13;;
39032;SDS011;24794;51.982;5.878;2022-09-09T04:24:53;3.75;;;1.60;;
39032;SDS011;24794;51.982;5.878;2022-09-09T04:25:54;2.75;;;1.30;;
39032;SDS011;24794;51.982;5.878;2022-09-09T04:26:55;2.00;;;1.38;;
39032;SDS011;24794;51.982;5.878;2022-09-09T04:27:56;2.38;;;1.48;;
39032;SDS011;24794;51.982;5.878;2022-09-09T04:28:58;2.53;;;1.40;;
39032;SDS011;24794;51.982;5.878;2022-09-09T04:29:58;2.75;;;1.40;;
39032;SDS011;24794;51.982;5.878;2022-09-09T04:31:06;2.85;;;1.48;;
39032;SDS011;24794;51.982;5.878;2022-09-09T04:32:11;3.45;;;1.33;;
39032;SDS011;24794;51.982;5.878;2022-09-09T04:33:12;3.05;;;1.70;;
39032;SDS011;24794;51.982;5.878;2022-09-09T04:34:13;3.63;;;1.52;;
39032;SDS011;24794;51.982;5.878;2022-09-09T04:35:14;7.00;;;1.55;;
39032;SDS011;24794;51.982;5.878;2022-09-09T04:36:14;1.80;;;1.20;;
39032;SDS011;24794;51.982;5.878;2022-09-09T04:37:16;2.90;;;1.50;;
39032;SDS011;24794;51.982;5.878;2022-09-09T04:38:16;2.55;;;1.40;;
39032;SDS011;24794;51.982;5.878;2022-09-09T04:39:18;2.95;;;1.20;;
39032;SDS011;24794;51.982;5.878;2022-09-09T04:40:19;3.42;;;1.27;;
39032;SDS011;24794;51.982;5.878;2022-09-09T04:41:22;3.92;;;1.45;;
39032;SDS011;24794;51.982;5.878;2022-09-09T04:42:23;1.70;;;1.13;;
39032;SDS011;24794;51.982;5.878;2022-09-09T04:43:23;3.78;;;1.38;;
39032;SDS011;24794;51.982;5.878;2022-09-09T04:44:25;1.75;;;1.08;;
39032;SDS011;24794;51.982;5.878;2022-09-09T04:45:26;4.32;;;1.38;;
39032;SDS011;24794;51.982;5.878;2022-09-09T04:46:27;1.73;;;1.30;;
39032;SDS011;24794;51.982;5.878;2022-09-09T04:47:28;4.38;;;1.30;;
39032;SDS011;24794;51.982;5.878;2022-09-09T04:48:28;3.05;;;1.17;;
39032;SDS011;24794;51.982;5.878;2022-09-09T04:49:31;2.75;;;1.20;;
39032;SDS011;24794;51.982;5.878;2022-09-09T04:50:31;2.80;;;1.23;;
39032;SDS011;24794;51.982;5.878;2022-09-09T04:51:32;5.93;;;1.30;;
39032;SDS011;24794;51.982;5.878;2022-09-09T04:52:34;6.50;;;1.23;;
39032;SDS011;24794;51.982;5.878;2022-09-09T04:53:35;4.20;;;1.40;;
39032;SDS011;24794;51.982;5.878;2022-09-09T04:54:36;2.08;;;1.10;;
39032;SDS011;24794;51.982;5.878;2022-09-09T04:55:37;3.38;;;1.20;;
39032;SDS011;24794;51.982;5.878;2022-09-09T04:56:43;2.60;;;1.17;;
39032;SDS011;24794;51.982;5.878;2022-09-09T04:57:44;4.07;;;1.30;;
39032;SDS011;24794;51.982;5.878;2022-09-09T04:58:44;2.20;;;1.30;;
39032;SDS011;24794;51.982;5.878;2022-09-09T04:59:45;3.80;;;1.17;;
39032;SDS011;24794;51.982;5.878;2022-09-09T05:00:46;3.22;;;1.25;;
39032;SDS011;24794;51.982;5.878;2022-09-09T05:01:46;2.78;;;1.30;;
39032;SDS011;24794;51.982;5.878;2022-09-09T05:02:47;7.18;;;1.50;;
39032;SDS011;24794;51.982;5.878;2022-09-09T05:03:48;3.35;;;1.40;;
39032;SDS011;24794;51.982;5.878;2022-09-09T05:04:49;4.78;;;1.52;;
39032;SDS011;24794;51.982;5.878;2022-09-09T05:05:49;4.57;;;1.40;;
39032;SDS011;24794;51.982;5.878;2022-09-09T05:06:50;3.75;;;1.25;;
39032;SDS011;24794;51.982;5.878;2022-09-09T05:07:50;3.25;;;1.40;;
39032;SDS011;24794;51.982;5.878;2022-09-09T05:08:51;2.67;;;1.30;;
39032;SDS011;24794;51.982;5.878;2022-09-09T05:09:51;2.63;;;1.25;;
39032;SDS011;24794;51.982;5.878;2022-09-09T05:10:52;3.53;;;1.48;;
39032;SDS011;24794;51.982;5.878;2022-09-09T05:11:52;3.03;;;1.35;;
39032;SDS011;24794;51.982;5.878;2022-09-09T05:12:53;4.38;;;1.30;;
39032;SDS011;24794;51.982;5.878;2022-09-09T05:13:54;3.38;;;1.40;;
39032;SDS011;24794;51.982;5.878;2022-09-09T05:14:56;3.35;;;1.08;;
39032;SDS011;24794;51.982;5.878;2022-09-09T05:15:56;2.80;;;1.10;;
39032;SDS011;24794;51.982;5.878;2022-09-09T05:16:57;6.88;;;1.48;;
39032;SDS011;24794;51.982;5.878;2022-09-09T05:17:58;4.68;;;1.40;;
39032;SDS011;24794;51.982;5.878;2022-09-09T05:19:00;5.68;;;1.30;;
39032;SDS011;24794;51.982;5.878;2022-09-09T05:20:03;3.50;;;1.20;;
39032;SDS011;24794;51.982;5.878;2022-09-09T05:21:04;1.52;;;1.00;;
39032;SDS011;24794;51.982;5.878;2022-09-09T05:22:06;2.42;;;1.10;;
39032;SDS011;24794;51.982;5.878;2022-09-09T05:23:07;3.85;;;1.08;;
39032;SDS011;24794;51.982;5.878;2022-09-09T05:24:09;4.45;;;1.00;;
39032;SDS011;24794;51.982;5.878;2022-09-09T05:25:10;2.08;;;0.93;;
39032;SDS011;24794;51.982;5.878;2022-09-09T05:26:12;3.90;;;1.33;;
39032;SDS011;24794;51.982;5.878;2022-09-09T05:27:15;3.50;;;1.48;;
39032;SDS011;24794;51.982;5.878;2022-09-09T05:28:15;2.55;;;1.20;;
39032;SDS011;24794;51.982;5.878;2022-09-09T05:29:16;4.13;;;1.50;;
39032;SDS011;24794;51.982;5.878;2022-09-09T05:30:19;3.58;;;1.30;;
39032;SDS011;24794;51.982;5.878;2022-09-09T05:31:20;4.53;;;1.40;;
39032;SDS011;24794;51.982;5.878;2022-09-09T05:32:21;2.75;;;1.50;;
39032;SDS011;24794;51.982;5.878;2022-09-09T05:33:21;4.22;;;1.35;;
39032;SDS011;24794;51.982;5.878;2022-09-09T05:34:22;3.90;;;1.20;;
39032;SDS011;24794;51.982;5.878;2022-09-09T05:35:23;6.63;;;1.48;;
39032;SDS011;24794;51.982;5.878;2022-09-09T05:36:23;4.70;;;1.50;;
39032;SDS011;24794;51.982;5.878;2022-09-09T05:37:24;3.90;;;1.50;;
39032;SDS011;24794;51.982;5.878;2022-09-09T05:38:25;3.42;;;1.15;;
39032;SDS011;24794;51.982;5.878;2022-09-09T05:39:26;3.17;;;1.30;;
39032;SDS011;24794;51.982;5.878;2022-09-09T05:40:26;5.50;;;1.55;;
39032;SDS011;24794;51.982;5.878;2022-09-09T05:41:27;3.47;;;1.20;;
39032;SDS011;24794;51.982;5.878;2022-09-09T05:42:31;4.40;;;1.40;;
39032;SDS011;24794;51.982;5.878;2022-09-09T05:43:32;6.13;;;1.60;;
39032;SDS011;24794;51.982;5.878;2022-09-09T05:44:35;5.78;;;1.15;;
39032;SDS011;24794;51.982;5.878;2022-09-09T05:45:37;3.30;;;1.10;;
39032;SDS011;24794;51.982;5.878;2022-09-09T05:46:37;5.78;;;1.30;;
39032;SDS011;24794;51.982;5.878;2022-09-09T05:47:38;3.72;;;1.48;;
39032;SDS011;24794;51.982;5.878;2022-09-09T05:48:42;5.35;;;1.42;;
39032;SDS011;24794;51.982;5.878;2022-09-09T05:49:46;7.30;;;1.60;;
39032;SDS011;24794;51.982;5.878;2022-09-09T05:50:54;4.75;;;1.70;;
39032;SDS011;24794;51.982;5.878;2022-09-09T05:51:54;4.05;;;1.60;;
39032;SDS011;24794;51.982;5.878;2022-09-09T05:52:55;4.70;;;1.42;;
39032;SDS011;24794;51.982;5.878;2022-09-09T05:53:56;4.90;;;1.60;;
39032;SDS011;24794;51.982;5.878;2022-09-09T05:54:59;5.18;;;1.50;;
39032;SDS011;24794;51.982;5.878;2022-09-09T05:57:03;4.07;;;1.33;;
39032;SDS011;24794;51.982;5.878;2022-09-09T05:58:04;4.13;;;1.20;;
39032;SDS011;24794;51.982;5.878;2022-09-09T05:59:05;4.32;;;1.30;;
39032;SDS011;24794;51.982;5.878;2022-09-09T06:00:07;3.08;;;1.20;;
39032;SDS011;24794;51.982;5.878;2022-09-09T06:01:11;6.38;;;1.60;;
39032;SDS011;24794;51.982;5.878;2022-09-09T06:02:16;3.42;;;1.20;;
39032;SDS011;24794;51.982;5.878;2022-09-09T06:03:16;6.82;;;1.48;;
39032;SDS011;24794;51.982;5.878;2022-09-09T06:04:17;3.08;;;1.20;;
39032;SDS011;24794;51.982;5.878;2022-09-09T06:05:18;2.67;;;1.00;;
39032;SDS011;24794;51.982;5.878;2022-09-09T06:06:21;6.35;;;1.25;;
39032;SDS011;24794;51.982;5.878;2022-09-09T06:07:23;4.70;;;1.40;;
39032;SDS011;24794;51.982;5.878;2022-09-09T06:08:24;4.80;;;1.45;;
39032;SDS011;24794;51.982;5.878;2022-09-09T06:09:25;3.90;;;1.63;;
39032;SDS011;24794;51.982;5.878;2022-09-09T06:10:25;4.68;;;1.58;;
39032;SDS011;24794;51.982;5.878;2022-09-09T06:11:27;5.15;;;1.50;;
39032;SDS011;24794;51.982;5.878;2022-09-09T06:12:31;4.65;;;1.45;;
39032;SDS011;24794;51.982;5.878;2022-09-09T06:13:32;2.95;;;1.50;;
39032;SDS011;24794;51.982;5.878;2022-09-09T06:14:32;3.17;;;1.38;;
39032;SDS011;24794;51.982;5.878;2022-09-09T06:15:33;5.20;;;1.48;;
39032;SDS011;24794;51.982;5.878;2022-09-09T06:16:34;4.45;;;1.60;;
39032;SDS011;24794;51.982;5.878;2022-09-09T06:17:35;5.78;;;1.60;;
39032;SDS011;24794;51.982;5.878;2022-09-09T06:18:36;3.53;;;1.33;;
39032;SDS011;24794;51.982;5.878;2022-09-09T06:19:37;6.40;;;1.50;;
39032;SDS011;24794;51.982;5.878;2022-09-09T06:20:38;6.55;;;1.50;;
39032;SDS011;24794;51.982;5.878;2022-09-09T06:21:38;4.63;;;1.65;;
39032;SDS011;24794;51.982;5.878;2022-09-09T06:22:40;5.63;;;1.30;;
39032;SDS011;24794;51.982;5.878;2022-09-09T06:23:41;4.30;;;1.20;;
39032;SDS011;24794;51.982;5.878;2022-09-09T06:24:41;4.03;;;1.30;;
39032;SDS011;24794;51.982;5.878;2022-09-09T06:25:42;3.03;;;1.55;;
39032;SDS011;24794;51.982;5.878;2022-09-09T06:26:43;4.88;;;1.52;;
39032;SDS011;24794;51.982;5.878;2022-09-09T06:27:47;5.70;;;1.70;;
39032;SDS011;24794;51.982;5.878;2022-09-09T06:28:50;5.18;;;1.30;;
39032;SDS011;24794;51.982;5.878;2022-09-09T06:29:52;5.60;;;1.50;;
39032;SDS011;24794;51.982;5.878;2022-09-09T06:31:03;3.78;;;1.00;;
39032;SDS011;24794;51.982;5.878;2022-09-09T06:32:05;3.80;;;1.30;;
39032;SDS011;24794;51.982;5.878;2022-09-09T06:33:08;6.75;;;2.00;;
39032;SDS011;24794;51.982;5.878;2022-09-09T06:34:09;6.90;;;1.70;;
39032;SDS011;24794;51.982;5.878;2022-09-09T06:35:09;8.07;;;2.00;;
39032;SDS011;24794;51.982;5.878;2022-09-09T06:36:11;4.25;;;1.05;;
39032;SDS011;24794;51.982;5.878;2022-09-09T06:37:14;6.07;;;1.50;;
39032;SDS011;24794;51.982;5.878;2022-09-09T06:38:15;2.85;;;1.42;;
39032;SDS011;24794;51.982;5.878;2022-09-09T06:39:16;6.68;;;1.83;;
39032;SDS011;24794;51.982;5.878;2022-09-09T06:40:16;11.00;;;2.88;;
39032;SDS011;24794;51.982;5.878;2022-09-09T06:41:17;4.90;;;1.70;;
39032;SDS011;24794;51.982;5.878;2022-09-09T06:42:20;4.07;;;1.40;;
39032;SDS011;24794;51.982;5.878;2022-09-09T06:43:21;3.47;;;1.40;;
39032;SDS011;24794;51.982;5.878;2022-09-09T06:44:30;5.95;;;1.30;;
39032;SDS011;24794;51.982;5.878;2022-09-09T06:45:31;6.40;;;1.63;;
39032;SDS011;24794;51.982;5.878;2022-09-09T06:46:32;6.05;;;1.50;;
39032;SDS011;24794;51.982;5.878;2022-09-09T06:47:33;6.03;;;1.88;;
39032;SDS011;24794;51.982;5.878;2022-09-09T06:48:34;5.75;;;1.52;;
39032;SDS011;24794;51.982;5.878;2022-09-09T06:49:34;5.70;;;1.67;;
39032;SDS011;24794;51.982;5.878;2022-09-09T06:50:35;6.40;;;1.60;;
39032;SDS011;24794;51.982;5.878;2022-09-09T06:51:36;8.55;;;1.63;;
39032;SDS011;24794;51.982;5.878;2022-09-09T06:52:42;5.20;;;1.60;;
39032;SDS011;24794;51.982;5.878;2022-09-09T06:53:49;6.00;;;1.60;;
39032;SDS011;24794;51.982;5.878;2022-09-09T06:54:52;7.65;;;2.10;;
39032;SDS011;24794;51.982;5.878;2022-09-09T06:55:53;9.07;;;1.77;;
39032;SDS011;24794;51.982;5.878;2022-09-09T06:56:54;7.07;;;1.67;;
39032;SDS011;24794;51.982;5.878;2022-09-09T06:57:55;4.18;;;1.45;;
39032;SDS011;24794;51.982;5.878;2022-09-09T06:58:57;10.77;;;2.17;;
39032;SDS011;24794;51.982;5.878;2022-09-09T06:59:59;6.63;;;1.98;;
39032;SDS011;24794;51.982;5.878;2022-09-09T07:01:03;7.38;;;1.75;;
39032;SDS011;24794;51.982;5.878;2022-09-09T07:02:07;7.45;;;1.40;;
39032;SDS011;24794;51.982;5.878;2022-09-09T07:03:09;8.65;;;2.10;;
39032;SDS011;24794;51.982;5.878;2022-09-09T07:04:10;5.55;;;2.00;;
39032;SDS011;24794;51.982;5.878;2022-09-09T07:05:12;8.82;;;1.90;;
39032;SDS011;24794;51.982;5.878;2022-09-09T07:06:14;7.72;;;1.98;;
39032;SDS011;24794;51.982;5.878;2022-09-09T07:07:17;5.93;;;1.60;;
39032;SDS011;24794;51.982;5.878;2022-09-09T07:08:17;7.65;;;1.50;;
39032;SDS011;24794;51.982;5.878;2022-09-09T07:09:18;8.70;;;1.90;;
39032;SDS011;24794;51.982;5.878;2022-09-09T07:10:18;5.10;;;1.70;;
39032;SDS011;24794;51.982;5.878;2022-09-09T07:11:19;8.18;;;1.80;;
39032;SDS011;24794;51.982;5.878;2022-09-09T07:12:21;7.78;;;1.90;;